Time;durP1;ratioP1;P1;durP2;ratioP2;P2;SDS_P1;SDS_P2;PMS_P1;PMS_P2;Temp;Humidity;BMP_temperature;BMP_pressure;BME280_temperature;BME280_humidity;BME280_pressure;Samples;Min_cycle;Max_cycle;Signal;HPM_P1;HPM_P2
2022/07/06 00:02:08;;;;;;;18.48;9.60;;;;;;;25.53;80.76;100428.53;5071732;28;20047;-85
2022/07/06 00:04:34;;;;;;;18.67;10.43;;;;;;;25.43;81.93;100423.00;5071247;28;20040;-91
2022/07/06 00:06:59;;;;;;;16.48;9.85;;;;;;;25.27;83.07;100427.53;5062513;28;20037;-90
2022/07/06 00:09:25;;;;;;;12.50;9.45;;;;;;;25.09;84.46;100431.44;5057725;28;20082;-94
2022/07/06 00:11:51;;;;;;;17.05;9.40;;;;;;;25.03;85.09;100437.91;5055632;28;20036;-91
2022/07/06 00:14:17;;;;;;;18.35;9.10;;;;;;;25.13;84.54;100437.16;5056360;28;20056;-93
2022/07/06 00:16:46;;;;;;;16.55;9.35;;;;;;;24.99;85.42;100436.00;5056106;28;20037;-93
2022/07/06 00:19:12;;;;;;;13.88;8.85;;;;;;;25.02;85.29;100435.47;5039298;28;20055;-92
2022/07/06 00:21:38;;;;;;;16.25;8.70;;;;;;;24.95;85.99;100432.97;5055871;28;20060;-90
2022/07/06 00:24:04;;;;;;;18.70;8.20;;;;;;;24.99;85.90;100442.22;5056144;28;20398;-91
2022/07/06 00:26:30;;;;;;;13.60;8.20;;;;;;;24.96;86.56;100442.72;5037761;28;20033;-93
2022/07/06 00:28:55;;;;;;;16.05;8.45;;;;;;;24.86;87.87;100447.28;5051855;28;20056;-93
2022/07/06 00:31:21;;;;;;;17.88;7.25;;;;;;;24.88;87.62;100451.34;5039496;28;20033;-91
2022/07/06 00:33:47;;;;;;;14.63;7.68;;;;;;;24.85;88.36;100445.63;5068011;28;20401;-90
2022/07/06 00:36:13;;;;;;;11.57;7.65;;;;;;;24.88;88.76;100455.97;5061712;28;20040;-93
2022/07/06 00:38:38;;;;;;;18.08;7.65;;;;;;;24.93;88.36;100458.69;5060814;28;20036;-88
2022/07/06 00:41:04;;;;;;;17.50;8.02;;;;;;;24.80;89.58;100453.66;5054372;28;20032;-90
2022/07/06 00:43:55;;;;;;;14.30;8.32;;;;;;;24.65;90.73;100448.94;5055492;28;20113;-90
2022/07/06 00:46:41;;;;;;;17.10;7.60;;;;;;;24.75;90.19;100467.19;5056012;28;20033;-90
2022/07/06 00:50:13;;;;;;;16.83;7.45;;;;;;;24.77;90.61;100470.44;5054328;28;20052;-91
2022/07/06 00:51:56;;;;;;;14.40;7.72;;;;;;;24.64;91.40;100474.38;5057919;28;20052;-91
2022/07/06 00:54:22;;;;;;;25.02;8.75;;;;;;;24.64;91.99;100469.78;5061586;28;20029;-91
2022/07/06 00:56:47;;;;;;;13.90;6.65;;;;;;;24.68;92.08;100472.81;5063300;28;20498;-92
2022/07/06 00:59:13;;;;;;;16.75;8.00;;;;;;;24.55;93.97;100479.47;5049401;28;20038;-84
2022/07/06 01:01:39;;;;;;;17.95;7.15;;;;;;;24.51;93.92;100472.09;5073219;28;20044;-88
2022/07/06 01:04:04;;;;;;;15.18;6.30;;;;;;;24.51;94.68;100478.31;5082407;28;20052;-84
2022/07/06 01:06:30;;;;;;;11.52;6.25;;;;;;;24.44;95.72;100487.72;5073305;28;20063;-90
2022/07/06 01:08:56;;;;;;;15.20;7.07;;;;;;;24.42;95.41;100476.31;5071996;28;20401;-89
2022/07/06 01:11:22;;;;;;;12.73;7.60;;;;;;;24.35;96.55;100479.22;5079197;28;20572;-91
2022/07/06 01:13:51;;;;;;;12.75;6.63;;;;;;;24.26;96.38;100479.94;5033875;28;20025;-89
2022/07/06 01:16:17;;;;;;;13.15;6.05;;;;;;;24.31;96.72;100471.84;5060299;28;20468;-93
2022/07/06 01:18:43;;;;;;;16.17;6.13;;;;;;;24.28;97.66;100469.66;5093841;22;20068;-91
2022/07/06 01:21:10;;;;;;;16.48;5.68;;;;;;;24.26;98.15;100471.81;5060127;28;20520;-95
2022/07/06 01:23:41;;;;;;;9.05;5.50;;;;;;;24.45;97.05;100462.28;5077682;28;20032;-91
2022/07/06 01:26:09;;;;;;;13.75;4.95;;;;;;;24.42;96.92;100465.50;5082132;28;20032;-91
2022/07/06 01:28:35;;;;;;;10.45;4.57;;;;;;;24.48;96.21;100461.75;5079741;28;20086;-93
2022/07/06 01:31:00;;;;;;;9.82;4.70;;;;;;;24.39;96.37;100468.72;5079784;28;20032;-90
2022/07/06 01:33:26;;;;;;;12.48;4.45;;;;;;;24.31;96.88;100464.56;5080403;28;20036;-91
2022/07/06 01:35:52;;;;;;;10.70;3.67;;;;;;;24.31;95.02;100466.44;5065785;28;20036;-91
2022/07/06 01:38:17;;;;;;;13.65;4.20;;;;;;;24.50;93.80;100465.84;5079932;28;20108;-91
2022/07/06 01:40:43;;;;;;;11.50;4.13;;;;;;;24.36;95.42;100475.44;5074807;28;20052;-92
2022/07/06 01:43:08;;;;;;;14.02;4.35;;;;;;;24.27;95.36;100471.53;5094918;28;20560;-91
2022/07/06 01:45:35;;;;;;;14.85;3.47;;;;;;;24.41;94.13;100480.09;5095122;28;20028;-90
2022/07/06 01:48:05;;;;;;;8.40;3.67;;;;;;;24.35;93.92;100475.69;5085174;28;20047;-90
2022/07/06 01:50:31;;;;;;;8.95;3.42;;;;;;;24.22;95.19;100484.22;5085009;28;20028;-89
2022/07/06 01:53:00;;;;;;;9.95;3.95;;;;;;;24.07;95.62;100485.63;5081910;28;20042;-93
2022/07/06 01:55:26;;;;;;;10.13;4.28;;;;;;;23.97;97.04;100493.59;5060259;28;20029;-91
2022/07/06 01:57:51;;;;;;;11.48;5.40;;;;;;;24.04;96.25;100490.72;5059965;28;20100;-91
2022/07/06 02:00:18;;;;;;;7.40;5.47;;;;;;;24.12;94.78;100493.84;5060629;28;20409;-93
2022/07/06 02:02:48;;;;;;;14.20;6.32;;;;;;;24.32;92.91;100501.41;5061891;28;20390;-91
2022/07/06 02:05:13;;;;;;;10.57;5.63;;;;;;;24.25;92.09;100505.38;5060606;28;20028;-90
2022/07/06 02:07:39;;;;;;;11.65;5.28;;;;;;;24.11;92.75;100513.84;5044218;28;20040;-90
2022/07/06 02:10:08;;;;;;;12.25;5.28;;;;;;;24.10;92.74;100520.31;5044512;28;20394;-91
2022/07/06 02:12:33;;;;;;;10.60;5.00;;;;;;;24.16;92.05;100519.34;5081907;28;20033;-89
2022/07/06 02:14:59;;;;;;;11.15;4.70;;;;;;;24.18;91.25;100525.34;5058739;28;20035;-89
2022/07/06 02:17:25;;;;;;;8.95;3.65;;;;;;;24.03;90.32;100529.69;5042634;28;20392;-88
2022/07/06 02:19:50;;;;;;;10.48;3.60;;;;;;;24.00;90.51;100536.44;5076747;28;20478;-85
2022/07/06 02:22:16;;;;;;;9.27;3.35;;;;;;;24.03;90.35;100533.22;5058916;28;20036;-91
2022/07/06 02:24:42;;;;;;;10.43;3.28;;;;;;;23.98;89.32;100548.59;5059016;28;20025;-89
2022/07/06 02:27:08;;;;;;;6.30;3.30;;;;;;;23.96;88.95;100543.41;5060065;28;20173;-91
2022/07/06 02:29:34;;;;;;;8.98;3.10;;;;;;;23.99;88.36;100548.34;5080669;28;20465;-85
2022/07/06 02:32:00;;;;;;;5.18;2.65;;;;;;;24.06;87.77;100551.66;5080637;28;20067;-84
2022/07/06 02:34:25;;;;;;;8.00;2.35;;;;;;;23.97;85.30;100558.59;5081948;28;20036;-87
2022/07/06 02:36:52;;;;;;;6.95;1.90;;;;;;;23.95;84.15;100565.31;5083342;28;20021;-87
2022/07/06 02:39:18;;;;;;;9.25;2.63;;;;;;;23.95;84.28;100566.16;5070454;28;20028;-93
2022/07/06 02:41:44;;;;;;;7.03;2.22;;;;;;;23.84;83.75;100568.94;5075781;28;20500;-89
2022/07/06 02:44:10;;;;;;;6.38;2.63;;;;;;;23.86;82.68;100566.81;5057966;28;20104;-91
2022/07/06 02:46:37;;;;;;;8.20;2.35;;;;;;;23.87;83.09;100569.25;5057943;28;20028;-92
2022/07/06 02:49:03;;;;;;;4.18;2.30;;;;;;;24.01;82.21;100575.97;5057989;28;20186;-89
2022/07/06 02:51:29;;;;;;;4.43;1.90;;;;;;;23.86;83.02;100583.06;5058504;28;20186;-89
2022/07/06 02:53:55;;;;;;;4.85;2.03;;;;;;;23.84;82.78;100585.19;5058099;28;20033;-87
2022/07/06 02:56:20;;;;;;;10.80;2.47;;;;;;;23.85;82.81;100578.72;5057515;28;20028;-86
2022/07/06 02:58:46;;;;;;;4.65;2.20;;;;;;;23.81;82.93;100578.38;5075333;28;20133;-92
2022/07/06 03:01:13;;;;;;;8.68;2.35;;;;;;;23.89;81.78;100586.09;5057868;28;20040;-89
2022/07/06 03:03:38;;;;;;;2.80;1.80;;;;;;;23.83;80.97;100589.78;5058056;28;20064;-88
2022/07/06 03:06:05;;;;;;;8.48;2.30;;;;;;;23.98;80.40;100595.44;5075873;28;20432;-89
2022/07/06 03:08:31;;;;;;;5.35;1.60;;;;;;;23.88;80.12;100602.56;5058318;28;20120;-92
2022/07/06 03:10:57;;;;;;;4.40;1.50;;;;;;;23.88;80.63;100587.16;5076457;28;20106;-91
2022/07/06 03:13:22;;;;;;;6.03;1.80;;;;;;;23.88;80.98;100589.88;5057742;28;20028;-92
2022/07/06 03:15:50;;;;;;;7.68;1.73;;;;;;;23.87;81.14;100580.09;5058432;28;20066;-92
2022/07/06 03:18:16;;;;;;;4.55;1.25;;;;;;;23.72;82.50;100589.88;5057770;28;20474;-92
2022/07/06 03:20:41;;;;;;;3.13;1.95;;;;;;;23.61;83.09;100592.41;5057193;28;20036;-91
2022/07/06 03:23:09;;;;;;;8.82;1.63;;;;;;;23.81;80.74;100594.63;5058279;28;20386;-92
2022/07/06 03:25:35;;;;;;;7.00;1.50;;;;;;;23.93;80.72;100599.97;5056783;28;20040;-86
2022/07/06 03:28:01;;;;;;;3.50;1.90;;;;;;;23.78;81.28;100605.94;5057976;28;20032;-93
2022/07/06 03:30:26;;;;;;;7.55;2.15;;;;;;;23.77;81.17;100606.19;5077657;28;20032;-91
2022/07/06 03:32:54;;;;;;;9.75;2.05;;;;;;;23.74;81.73;100602.09;5061161;28;20036;-89
2022/07/06 03:35:21;;;;;;;6.53;1.88;;;;;;;23.60;82.92;100607.00;5060874;28;20063;-89
2022/07/06 03:37:49;;;;;;;6.45;2.17;;;;;;;23.57;83.57;100606.66;5060260;28;20504;-92
2022/07/06 03:40:15;;;;;;;6.65;1.98;;;;;;;23.43;85.12;100600.75;5057068;28;20032;-89
2022/07/06 03:42:42;;;;;;;4.53;1.60;;;;;;;23.44;84.93;100601.56;5057889;28;20117;-88
2022/07/06 03:45:09;;;;;;;4.47;1.73;;;;;;;23.40;86.02;100606.66;5057471;28;20143;-85
2022/07/06 03:47:35;;;;;;;4.95;1.70;;;;;;;23.22;86.84;100608.72;5042145;28;20547;-86
2022/07/06 03:50:01;;;;;;;9.20;1.90;;;;;;;23.26;87.51;100615.28;5076188;28;20064;-88
2022/07/06 03:52:27;;;;;;;5.30;1.88;;;;;;;23.08;88.67;100614.44;5060846;28;20048;-87
2022/07/06 03:54:55;;;;;;;2.25;1.30;;;;;;;23.18;87.86;100614.63;5062455;28;20048;-87
2022/07/06 03:57:25;;;;;;;4.72;1.58;;;;;;;23.11;88.70;100613.94;5061473;28;20033;-86
2022/07/06 03:59:51;;;;;;;3.03;1.60;;;;;;;23.02;89.37;100620.81;5059392;28;20045;-90
2022/07/06 04:02:17;;;;;;;5.25;1.60;;;;;;;23.09;89.04;100616.09;5061366;28;20039;-89
2022/07/06 04:04:43;;;;;;;18.67;7.43;;;;;;;23.05;89.47;100608.69;5078443;28;20032;-85
2022/07/06 04:07:08;;;;;;;6.05;1.70;;;;;;;23.09;88.33;100613.38;5061307;28;20036;-88
2022/07/06 04:09:35;;;;;;;2.40;1.30;;;;;;;22.99;89.21;100605.06;5060188;28;20052;-93
2022/07/06 04:12:01;;;;;;;4.03;1.55;;;;;;;22.99;89.24;100610.47;5083777;28;20063;-87
2022/07/06 04:14:27;;;;;;;5.60;1.20;;;;;;;22.78;90.41;100613.84;5086334;28;20029;-85
2022/07/06 04:16:53;;;;;;;6.07;1.63;;;;;;;22.76;90.62;100610.56;5070796;28;20038;-88
2022/07/06 04:19:19;;;;;;;8.75;1.65;;;;;;;22.94;89.79;100612.25;5067473;28;20044;-86
2022/07/06 04:21:45;;;;;;;6.70;1.40;;;;;;;22.86;89.93;100621.56;5060706;28;20024;-86
2022/07/06 04:24:10;;;;;;;5.85;1.45;;;;;;;22.88;89.66;100607.81;5063727;28;20037;-90
2022/07/06 04:26:37;;;;;;;4.15;1.20;;;;;;;22.87;89.38;100634.00;5063135;28;20021;-85
2022/07/06 04:29:03;;;;;;;8.52;1.67;;;;;;;22.77;90.14;100614.88;5061442;28;20039;-91
2022/07/06 04:31:29;;;;;;;5.20;1.35;;;;;;;22.79;89.76;100607.38;5043724;28;20080;-87
2022/07/06 04:33:55;;;;;;;5.72;1.15;;;;;;;22.72;91.26;100613.97;5062303;28;20032;-90
2022/07/06 04:36:21;;;;;;;4.65;1.02;;;;;;;22.91;89.90;100610.03;5064083;28;20036;-87
2022/07/06 04:38:47;;;;;;;4.70;1.80;;;;;;;22.80;90.06;100611.72;5061862;28;20040;-85
2022/07/06 04:41:15;;;;;;;5.50;1.27;;;;;;;22.79;90.26;100601.16;5064225;28;20052;-86
2022/07/06 04:43:41;;;;;;;16.92;1.67;;;;;;;22.88;89.79;100605.94;5042185;28;20416;-86
2022/07/06 04:46:07;;;;;;;3.58;1.48;;;;;;;22.74;90.90;100609.97;5060785;28;20027;-79
2022/07/06 04:48:39;;;;;;;6.47;1.60;;;;;;;22.81;90.39;100607.94;5087255;22;20128;-78
2022/07/06 04:51:05;;;;;;;9.40;1.55;;;;;;;22.77;90.97;100623.00;5041577;28;20132;-79
2022/07/06 04:53:34;;;;;;;4.15;1.30;;;;;;;22.67;91.90;100617.38;5057658;28;20065;-78
2022/07/06 04:55:59;;;;;;;2.72;1.20;;;;;;;22.68;92.04;100619.03;5037760;28;20053;-79
2022/07/06 04:58:27;;;;;;;3.85;1.38;;;;;;;22.70;92.12;100608.81;5039388;28;20040;-80
2022/07/06 05:00:53;;;;;;;3.80;1.30;;;;;;;22.79;91.66;100610.09;5038001;28;20101;-79
2022/07/06 05:03:20;;;;;;;5.28;1.20;;;;;;;22.88;91.49;100610.50;5039867;28;20040;-84
2022/07/06 05:05:46;;;;;;;9.15;1.55;;;;;;;22.88;91.33;100619.44;5040055;28;20029;-80
2022/07/06 05:08:11;;;;;;;5.38;1.80;;;;;;;22.80;91.32;100614.44;5041365;28;20025;-79
2022/07/06 05:10:37;;;;;;;6.38;1.38;;;;;;;22.90;91.12;100617.31;5043240;28;20041;-81
2022/07/06 05:13:03;;;;;;;5.13;1.40;;;;;;;22.98;90.47;100616.13;5042702;28;20033;-80
2022/07/06 05:15:30;;;;;;;9.20;1.38;;;;;;;22.86;91.47;100620.75;5044358;28;20030;-80
2022/07/06 05:17:59;;;;;;;5.03;1.20;;;;;;;22.99;91.23;100620.47;5060611;28;20094;-81
2022/07/06 05:20:25;;;;;;;3.83;1.35;;;;;;;23.01;91.35;100619.16;5043278;28;20036;-81
2022/07/06 05:22:51;;;;;;;3.13;1.50;;;;;;;23.09;89.58;100621.50;5059581;28;20040;-80
2022/07/06 05:25:21;;;;;;;7.47;1.90;;;;;;;23.09;90.65;100616.09;5059437;28;20044;-80
2022/07/06 05:27:47;;;;;;;2.55;1.45;;;;;;;23.17;89.96;100617.56;5061718;28;20120;-81
2022/07/06 05:30:15;;;;;;;6.75;1.48;;;;;;;23.10;90.15;100623.09;5062492;28;20043;-88
2022/07/06 05:32:45;;;;;;;3.63;1.40;;;;;;;23.20;89.17;100618.97;5066434;28;20090;-80
2022/07/06 05:35:11;;;;;;;5.55;1.60;;;;;;;23.16;90.28;100637.56;5063858;28;20512;-81
2022/07/06 05:37:42;;;;;;;9.30;2.08;;;;;;;23.23;89.46;100637.41;5066725;28;20499;-82
2022/07/06 05:40:10;;;;;;;7.70;1.63;;;;;;;23.29;89.17;100648.09;5031315;28;20087;-81
2022/07/06 05:42:36;;;;;;;8.18;1.45;;;;;;;23.32;88.72;100668.41;5062206;22;20046;-85
2022/07/06 05:45:04;;;;;;;5.03;1.58;;;;;;;23.35;88.64;100649.81;5076532;28;20494;-82
2022/07/06 05:50:17;;;;;;;3.55;1.23;;;;;;;23.33;86.61;100653.84;5076167;28;20402;-81
2022/07/06 05:53:01;;;;;;;8.52;1.58;;;;;;;23.36;86.70;100653.34;5077581;28;20147;-81
2022/07/06 05:55:28;;;;;;;6.35;1.25;;;;;;;23.27;86.72;100673.75;5062425;28;20044;-81
2022/07/06 05:57:56;;;;;;;3.38;1.20;;;;;;;23.29;85.63;100664.31;5079873;28;20056;-82
2022/07/06 06:00:24;;;;;;;1.85;1.23;;;;;;;23.29;85.43;100671.59;5079945;28;20046;-87
2022/07/06 06:02:53;;;;;;;4.72;1.10;;;;;;;23.23;85.15;100673.41;5077683;28;20089;-86
2022/07/06 06:05:20;;;;;;;5.50;1.75;;;;;;;23.11;85.25;100683.41;5081069;28;20039;-82
2022/07/06 06:07:50;;;;;;;7.00;1.10;;;;;;;23.02;85.45;100685.69;5081182;28;20177;-83
2022/07/06 06:10:17;;;;;;;4.63;1.17;;;;;;;23.01;85.11;100681.34;5064563;28;20024;-81
2022/07/06 06:12:45;;;;;;;3.47;1.13;;;;;;;23.14;84.37;100682.94;5079296;28;20067;-82
2022/07/06 06:15:11;;;;;;;5.47;1.00;;;;;;;23.11;83.69;100699.63;5081288;28;20032;-94
2022/07/06 06:17:38;;;;;;;4.00;0.90;;;;;;;22.98;84.50;100694.50;5082376;28;20029;-88
2022/07/06 06:20:09;;;;;;;2.72;0.90;;;;;;;22.99;84.82;100691.59;5078355;28;20033;-82
2022/07/06 06:22:46;;;;;;;2.17;1.00;;;;;;;23.06;85.44;100691.44;5079545;28;20037;-88
2022/07/06 06:25:12;;;;;;;2.20;0.90;;;;;;;23.15;84.96;100693.53;5083572;28;20097;-91
2022/07/06 06:27:40;;;;;;;2.53;1.00;;;;;;;23.09;84.94;100694.50;5088106;28;20028;-84
2022/07/06 06:30:06;;;;;;;2.72;1.27;;;;;;;23.11;85.71;100702.34;5094989;28;20042;-82
2022/07/06 06:32:31;;;;;;;5.45;0.98;;;;;;;23.18;85.43;100701.16;5082597;28;20036;-83
2022/07/06 06:34:57;;;;;;;3.50;1.20;;;;;;;23.13;86.10;100702.94;5084775;28;20036;-83
2022/07/06 06:37:42;;;;;;;5.15;0.90;;;;;;;23.09;86.43;100705.31;5086389;28;20085;-83
2022/07/06 06:40:12;;;;;;;4.85;1.10;;;;;;;23.24;86.47;100709.34;5084612;28;20033;-91
2022/07/06 06:42:41;;;;;;;7.18;1.08;;;;;;;23.38;85.48;100716.97;5084142;28;20033;-85
2022/07/06 06:45:11;;;;;;;6.05;1.33;;;;;;;23.62;83.97;100718.53;5082533;28;20032;-90
2022/07/06 06:47:39;;;;;;;7.88;1.25;;;;;;;23.65;84.03;100728.06;5070557;28;20033;-86
2022/07/06 06:50:05;;;;;;;7.32;1.10;;;;;;;23.74;83.61;100734.69;5071899;28;20090;-85
2022/07/06 06:52:32;;;;;;;6.20;1.17;;;;;;;23.75;83.67;100725.53;5078035;28;20036;-90
2022/07/06 06:54:57;;;;;;;3.72;1.10;;;;;;;23.87;83.24;100731.69;5083514;28;20071;-84
2022/07/06 06:57:23;;;;;;;5.63;1.50;;;;;;;23.77;82.93;100736.91;5098474;28;20408;-82
2022/07/06 06:59:49;;;;;;;3.97;1.15;;;;;;;23.61;84.10;100732.31;5099339;28;20028;-84
2022/07/06 07:02:14;;;;;;;8.55;1.38;;;;;;;23.65;84.08;100739.69;5086535;28;20068;-84
2022/07/06 07:04:40;;;;;;;5.82;1.52;;;;;;;23.64;84.72;100737.22;5077293;28;20059;-84
2022/07/06 07:07:05;;;;;;;6.18;1.10;;;;;;;23.66;84.77;100738.63;5075562;28;20036;-85
2022/07/06 07:09:31;;;;;;;4.75;1.23;;;;;;;23.65;84.76;100750.53;5073663;28;20044;-91
2022/07/06 07:11:57;;;;;;;6.90;1.15;;;;;;;23.73;84.59;100740.38;5072902;28;20033;-86
2022/07/06 07:14:23;;;;;;;3.10;1.40;;;;;;;23.99;83.73;100737.06;5077144;28;20037;-86
2022/07/06 07:16:48;;;;;;;4.93;1.15;;;;;;;24.04;83.39;100737.94;5079980;28;20505;-92
2022/07/06 07:19:14;;;;;;;6.43;1.20;;;;;;;24.26;81.94;100739.97;5075710;28;20032;-90
2022/07/06 07:21:39;;;;;;;7.22;1.25;;;;;;;24.42;80.76;100737.25;5074212;28;20040;-87
2022/07/06 07:24:07;;;;;;;2.78;1.30;;;;;;;24.82;78.36;100720.78;5075251;28;20028;-83
2022/07/06 07:26:32;;;;;;;4.05;1.23;;;;;;;25.61;73.81;100738.31;5077209;28;20032;-90
2022/07/06 07:28:58;;;;;;;4.55;1.38;;;;;;;25.49;72.85;100736.78;5074086;28;20549;-89
2022/07/06 07:31:23;;;;;;;5.38;1.67;;;;;;;25.05;75.75;100730.56;5069720;28;20024;-84
2022/07/06 07:33:49;;;;;;;8.00;1.48;;;;;;;25.09;74.39;100731.72;5055877;28;20021;-90
2022/07/06 07:36:15;;;;;;;7.45;1.38;;;;;;;25.35;73.31;100730.94;5056672;28;20125;-85
2022/07/06 07:38:40;;;;;;;6.55;1.30;;;;;;;25.45;72.52;100724.81;5060393;28;20475;-87
2022/07/06 07:41:06;;;;;;;8.15;1.42;;;;;;;25.62;71.20;100712.78;5065588;28;20060;-88
2022/07/06 07:43:31;;;;;;;11.23;1.55;;;;;;;25.55;69.28;100728.47;5068318;28;20027;-87
2022/07/06 07:45:57;;;;;;;4.78;0.90;;;;;;;25.88;66.50;100724.75;5065525;28;20041;-91
2022/07/06 07:48:22;;;;;;;2.20;1.02;;;;;;;26.17;65.10;100712.53;5064707;28;20032;-88
2022/07/06 07:50:49;;;;;;;4.65;1.30;;;;;;;26.13;65.07;100719.50;5067326;28;20028;-84
2022/07/06 07:53:14;;;;;;;9.13;1.23;;;;;;;26.88;63.38;100723.06;5091461;28;20056;-85
2022/07/06 07:55:40;;;;;;;8.73;0.90;;;;;;;27.04;61.85;100730.19;5088794;28;20032;-86
2022/07/06 07:58:05;;;;;;;11.63;1.20;;;;;;;27.29;61.23;100733.00;5084916;28;20470;-85
2022/07/06 08:00:31;;;;;;;13.73;1.35;;;;;;;27.66;58.77;100732.88;5079734;28;20032;-88
2022/07/06 08:02:57;;;;;;;6.28;0.77;;;;;;;27.90;58.14;100733.19;5078952;28;20032;-88
2022/07/06 08:05:22;;;;;;;6.72;1.20;;;;;;;27.63;59.98;100727.97;5078493;28;20033;-86
2022/07/06 08:07:54;;;;;;;6.82;1.10;;;;;;;28.20;56.87;100738.69;5077111;28;20044;-91
2022/07/06 08:10:20;;;;;;;13.83;1.13;;;;;;;27.87;57.44;100726.38;5077200;28;20033;-88
2022/07/06 08:12:45;;;;;;;11.48;1.38;;;;;;;27.57;58.49;100723.59;5060362;28;20043;-89
2022/07/06 08:15:10;;;;;;;10.05;1.45;;;;;;;27.72;57.19;100729.06;5060981;28;20037;-86
2022/07/06 08:17:36;;;;;;;2.38;0.73;;;;;;;27.18;57.25;100729.44;5065220;28;20028;-84
2022/07/06 08:20:03;;;;;;;1.88;0.70;;;;;;;27.35;57.72;100736.56;5064633;28;20067;-90
2022/07/06 08:22:29;;;;;;;6.65;1.20;;;;;;;28.18;55.08;100730.75;5070925;28;20043;-88
2022/07/06 08:24:55;;;;;;;4.78;1.08;;;;;;;28.38;53.63;100746.28;5082225;28;20043;-84
2022/07/06 08:27:20;;;;;;;4.50;1.15;;;;;;;28.58;52.73;100746.25;5084841;28;20033;-86
2022/07/06 08:29:46;;;;;;;5.03;1.27;;;;;;;28.05;55.20;100735.91;5081559;28;20036;-93
2022/07/06 08:32:11;;;;;;;3.08;0.85;;;;;;;28.35;54.82;100729.66;5083349;28;20048;-86
2022/07/06 08:34:37;;;;;;;4.68;0.95;;;;;;;27.85;55.96;100733.97;5079513;28;20180;-88
2022/07/06 08:37:06;;;;;;;4.78;0.75;;;;;;;28.20;55.60;100723.16;5076552;28;20500;-85
2022/07/06 08:39:31;;;;;;;4.75;1.08;;;;;;;28.56;53.78;100731.28;5087324;28;20037;-87
2022/07/06 08:42:07;;;;;;;7.70;1.25;;;;;;;28.36;54.69;100734.03;5080460;28;20048;-87
2022/07/06 08:44:57;;;;;;;5.82;1.00;;;;;;;28.51;55.16;100728.53;5067027;28;20025;-86
2022/07/06 08:47:26;;;;;;;10.43;1.05;;;;;;;29.36;52.84;100727.50;5066519;28;20041;-86
2022/07/06 08:49:52;;;;;;;6.28;0.95;;;;;;;29.03;52.45;100729.00;5052010;28;20047;-89
2022/07/06 08:52:18;;;;;;;3.70;1.10;;;;;;;28.73;52.97;100731.81;5063516;28;20039;-90
2022/07/06 08:54:44;;;;;;;2.53;0.77;;;;;;;28.64;53.49;100728.78;5065472;28;20056;-86
2022/07/06 08:57:14;;;;;;;3.25;1.15;;;;;;;29.13;51.99;100741.78;5043917;28;20037;-86
2022/07/06 08:59:40;;;;;;;3.08;0.90;;;;;;;28.52;52.87;100724.72;5062734;28;20033;-87
2022/07/06 09:02:05;;;;;;;3.50;1.00;;;;;;;28.62;53.26;100711.06;5065923;28;20044;-94
2022/07/06 09:04:36;;;;;;;4.63;1.05;;;;;;;28.62;52.77;100735.63;5063843;28;20394;-87
2022/07/06 09:07:02;;;;;;;6.47;0.93;;;;;;;28.71;52.73;100725.81;5065004;28;20095;-89
2022/07/06 09:09:31;;;;;;;3.03;0.82;;;;;;;29.52;50.51;100728.22;5063233;28;20467;-84
2022/07/06 09:11:57;;;;;;;2.70;1.10;;;;;;;29.29;50.81;100734.34;5052166;28;20416;-92
2022/07/06 09:14:23;;;;;;;3.92;1.00;;;;;;;29.12;51.30;100740.97;5077686;28;20041;-87
2022/07/06 09:17:02;;;;;;;3.70;1.10;;;;;;;28.73;52.42;100723.63;5077254;28;20052;-85
2022/07/06 09:19:28;;;;;;;7.88;1.20;;;;;;;28.49;54.40;100725.28;5077422;28;20068;-87
2022/07/06 09:21:54;;;;;;;7.13;1.48;;;;;;;28.48;54.47;100718.19;5086825;28;20032;-86
2022/07/06 09:24:23;;;;;;;4.63;1.20;;;;;;;28.70;54.63;100718.72;5093200;22;20043;-85
2022/07/06 09:26:58;;;;;;;5.65;1.33;;;;;;;28.75;55.81;100726.88;5067692;28;20037;-86
2022/07/06 09:29:33;;;;;;;7.80;1.65;;;;;;;28.52;54.67;100724.72;5055599;28;20040;-86
2022/07/06 09:32:01;;;;;;;7.63;2.00;;;;;;;28.73;54.57;100735.38;5055969;28;20037;-85
2022/07/06 09:35:02;;;;;;;5.45;1.45;;;;;;;28.59;55.54;100725.25;5086333;28;20045;-84
2022/07/06 09:37:30;;;;;;;4.95;1.52;;;;;;;28.60;55.71;100726.91;5178024;22;20070;-86
2022/07/06 09:40:18;;;;;;;3.63;1.40;;;;;;;28.65;55.84;100735.06;5074442;28;20053;-85
2022/07/06 09:43:07;;;;;;;5.60;1.60;;;;;;;29.01;55.86;100733.91;5087730;22;20037;-88
2022/07/06 09:45:52;;;;;;;10.40;2.10;;;;;;;28.99;56.20;100736.09;5075948;28;20033;-87
2022/07/06 09:48:22;;;;;;;5.55;1.92;;;;;;;28.85;56.21;100724.13;5080886;22;20078;-86
2022/07/06 09:51:06;;;;;;;6.28;1.48;;;;;;;29.13;54.63;100720.72;5091645;28;20029;-88
2022/07/06 09:53:50;;;;;;;5.20;2.10;;;;;;;29.13;55.22;100715.28;5067212;28;20039;-85
2022/07/06 09:59:18;;;;;;;4.95;1.75;;;;;;;29.30;54.91;100716.88;4906154;26;20049;-87
2022/07/06 10:01:56;;;;;;;5.55;1.73;;;;;;;29.43;54.40;100725.25;5054939;28;20091;-87
2022/07/06 10:04:52;;;;;;;3.25;1.48;;;;;;;29.31;54.67;100721.22;5070609;28;20063;-85
2022/07/06 10:07:50;;;;;;;4.20;1.38;;;;;;;30.10;52.38;100724.53;5026628;28;20052;-85
2022/07/06 10:13:19;;;;;;;9.88;2.10;;;;;;;29.08;54.99;100718.03;5076307;22;20442;-86
2022/07/06 10:15:49;;;;;;;6.63;1.40;;;;;;;29.11;55.80;100706.56;5025169;28;20041;-86
2022/07/06 10:18:16;;;;;;;3.63;1.23;;;;;;;29.42;54.51;100711.91;5044105;28;20087;-86
2022/07/06 10:20:50;;;;;;;5.25;1.80;;;;;;;29.55;53.90;100711.28;5024858;28;20123;-89
2022/07/06 10:23:17;;;;;;;2.25;1.42;;;;;;;29.71;53.47;100721.00;5044427;28;20095;-87
2022/07/06 10:25:47;;;;;;;6.47;1.67;;;;;;;29.31;55.18;100726.69;5024345;28;20069;-85
2022/07/06 10:28:19;;;;;;;9.75;1.90;;;;;;;29.68;54.00;100710.63;5042449;28;20941;-87
2022/07/06 10:30:53;;;;;;;9.13;1.77;;;;;;;30.21;52.65;100715.16;5024210;28;20490;-87
2022/07/06 10:33:20;;;;;;;10.93;1.58;;;;;;;30.56;50.61;100705.81;5027522;28;20041;-87
2022/07/06 10:35:52;;;;;;;6.40;1.85;;;;;;;30.68;50.70;100705.41;5042354;28;20037;-86
2022/07/06 10:38:42;;;;;;;6.15;1.90;;;;;;;30.48;50.88;100702.91;5027834;28;20048;-88
2022/07/06 10:41:09;;;;;;;8.45;2.60;;;;;;;30.09;51.49;100703.78;5039231;28;20092;-88
2022/07/06 10:43:37;;;;;;;5.45;1.70;;;;;;;29.82;53.10;100711.63;5034811;28;20041;-88
2022/07/06 10:46:28;;;;;;;4.25;1.55;;;;;;;29.71;52.45;100699.13;5024101;28;20042;-88
2022/07/06 10:49:15;;;;;;;4.15;1.50;;;;;;;29.69;52.56;100706.81;5038335;28;20036;-89
2022/07/06 10:51:42;;;;;;;6.65;1.40;;;;;;;29.91;52.27;100703.66;5048496;28;20116;-89
2022/07/06 10:54:09;;;;;;;4.45;1.50;;;;;;;30.26;51.21;100701.44;5019609;28;20036;-88
2022/07/06 10:56:45;;;;;;;11.35;4.38;;;;;;;30.27;51.36;100703.06;5038333;28;20033;-89
2022/07/06 10:59:38;;;;;;;5.95;1.85;;;;;;;29.92;51.02;100703.38;5035483;28;20030;-88
2022/07/06 11:02:17;;;;;;;6.28;1.80;;;;;;;30.04;51.17;100690.16;5047846;28;20109;-87
2022/07/06 11:04:45;;;;;;;4.38;1.38;;;;;;;30.15;51.20;100691.72;5036468;28;20048;-90
2022/07/06 11:07:17;;;;;;;6.68;1.55;;;;;;;30.02;51.33;100684.16;5026346;28;20036;-88
2022/07/06 11:10:22;;;;;;;6.97;1.90;;;;;;;30.05;51.60;100678.13;5027041;28;20081;-88
2022/07/06 11:13:00;;;;;;;3.47;1.50;;;;;;;29.96;51.33;100685.28;5056206;28;20028;-91
2022/07/06 11:15:48;;;;;;;6.07;1.73;;;;;;;30.06;51.05;100682.47;5060713;28;20025;-89
2022/07/06 11:18:19;;;;;;;5.57;1.50;;;;;;;30.13;50.63;100672.03;5078604;28;20028;-90
2022/07/06 11:21:14;;;;;;;6.72;1.75;;;;;;;30.21;51.02;100671.41;5071618;28;20040;-89
2022/07/06 11:23:40;;;;;;;2.20;1.17;;;;;;;30.88;49.48;100664.13;5058476;28;20053;-89
2022/07/06 11:26:06;;;;;;;3.58;1.27;;;;;;;31.00;48.75;100661.81;5047373;28;20060;-89
2022/07/06 11:28:36;;;;;;;7.30;1.67;;;;;;;31.22;48.09;100659.28;5043256;28;20093;-87
2022/07/06 11:31:02;;;;;;;6.45;1.50;;;;;;;31.49;47.99;100663.28;5033379;28;20041;-88
2022/07/06 11:33:29;;;;;;;5.75;1.60;;;;;;;30.50;49.31;100662.38;5069000;22;20051;-90
2022/07/06 11:36:15;;;;;;;5.47;1.58;;;;;;;30.49;50.05;100650.63;5083104;28;20055;-92
2022/07/06 11:38:44;;;;;;;4.60;1.60;;;;;;;30.30;50.11;100636.03;5080123;28;20028;-88
2022/07/06 11:41:11;;;;;;;5.05;1.67;;;;;;;30.30;49.98;100630.56;5080443;28;20037;-92